createdAt,value
2022-07-30T00:00:27.708Z,24.93
2022-07-30T00:01:29.427Z,24.93
2022-07-30T00:02:31.102Z,24.94
2022-07-30T00:03:34.012Z,24.96
2022-07-30T00:04:35.878Z,24.95
2022-07-30T00:05:37.626Z,24.91
2022-07-30T00:06:39.994Z,24.93
2022-07-30T00:07:41.740Z,24.94
2022-07-30T00:08:43.342Z,24.94
2022-07-30T00:09:45.097Z,24.97
2022-07-30T00:10:46.680Z,24.97
2022-07-30T00:11:51.995Z,24.93
2022-07-30T00:12:53.655Z,24.86
2022-07-30T00:13:55.659Z,24.81
2022-07-30T00:14:57.289Z,24.77
2022-07-30T00:15:58.940Z,24.75
2022-07-30T00:17:02.032Z,24.72
2022-07-30T00:18:05.323Z,24.68
2022-07-30T00:19:07.085Z,24.64
2022-07-30T00:20:10.579Z,24.64
2022-07-30T00:21:34.666Z,24.58
2022-07-30T00:22:36.635Z,24.53
2022-07-30T00:23:38.258Z,24.54
2022-07-30T00:24:39.864Z,24.58
2022-07-30T00:25:41.505Z,24.59
2022-07-30T00:26:43.116Z,24.63
2022-07-30T00:27:45.422Z,24.64
2022-07-30T00:28:47.101Z,24.67
2022-07-30T00:29:49.282Z,24.63
2022-07-30T00:30:52.729Z,24.60
2022-07-30T00:31:57.992Z,24.55
2022-07-30T00:32:59.657Z,24.55
2022-07-30T00:34:01.354Z,24.57
2022-07-30T00:35:03.495Z,24.60
2022-07-30T00:36:05.248Z,24.63
2022-07-30T00:37:06.866Z,24.62
2022-07-30T00:38:08.493Z,24.53
2022-07-30T00:39:10.142Z,24.54
2022-07-30T00:40:11.912Z,24.52
2022-07-30T00:41:15.577Z,24.48
2022-07-30T00:42:23.462Z,24.51
2022-07-30T00:43:25.071Z,24.52
2022-07-30T00:44:27.980Z,24.54
2022-07-30T00:45:29.723Z,24.58
2022-07-30T00:46:31.419Z,24.57
2022-07-30T00:47:33.069Z,24.56
2022-07-30T00:48:34.634Z,24.58
2022-07-30T00:49:36.213Z,24.59
2022-07-30T00:50:38.680Z,24.57
2022-07-30T00:51:40.254Z,24.53
2022-07-30T00:52:42.932Z,24.51
2022-07-30T00:53:44.532Z,24.42
2022-07-30T00:54:46.093Z,24.34
2022-07-30T00:55:47.911Z,24.20
2022-07-30T00:56:50.002Z,24.03
2022-07-30T00:57:51.627Z,23.88
2022-07-30T00:58:53.245Z,23.81
2022-07-30T00:59:55.646Z,23.69
2022-07-30T01:00:57.472Z,23.53
2022-07-30T01:02:01.746Z,23.45
2022-07-30T01:03:04.786Z,23.32
2022-07-30T01:04:11.499Z,23.25
2022-07-30T01:05:13.783Z,23.16
2022-07-30T01:06:15.712Z,23.01
2022-07-30T01:07:17.436Z,22.94
2022-07-30T01:08:19.029Z,22.90
2022-07-30T01:09:20.803Z,22.95
2022-07-30T01:10:22.675Z,22.96
2022-07-30T01:11:32.496Z,22.99
2022-07-30T01:12:34.353Z,23.00
2022-07-30T01:13:36.012Z,22.97
2022-07-30T01:14:38.561Z,22.99
2022-07-30T01:15:40.536Z,22.96
2022-07-30T01:16:43.257Z,22.93
2022-07-30T01:17:52.757Z,22.86
2022-07-30T01:19:16.624Z,22.80
2022-07-30T01:20:26.814Z,22.92
2022-07-30T01:21:37.402Z,23.04
2022-07-30T01:22:55.326Z,23.19
2022-07-30T01:24:06.749Z,23.33
2022-07-30T01:25:24.035Z,23.41
2022-07-30T01:26:26.591Z,23.48
2022-07-30T01:27:49.407Z,23.53
2022-07-30T01:28:56.081Z,23.59
2022-07-30T01:29:59.656Z,23.65
2022-07-30T01:31:03.882Z,23.67
2022-07-30T01:32:07.765Z,23.67
2022-07-30T01:33:14.988Z,23.71
2022-07-30T01:34:17.689Z,23.74
2022-07-30T01:35:21.817Z,23.75
2022-07-30T01:36:24.349Z,23.79
2022-07-30T01:37:28.149Z,23.83
2022-07-30T01:38:35.191Z,23.86
2022-07-30T01:39:38.664Z,23.91
2022-07-30T01:40:42.969Z,23.91
2022-07-30T01:41:45.271Z,23.91
2022-07-30T01:42:53.527Z,23.90
2022-07-30T01:43:55.982Z,23.90
2022-07-30T01:44:59.105Z,23.86
2022-07-30T01:46:02.953Z,23.79
2022-07-30T01:47:05.551Z,23.76
2022-07-30T01:48:09.925Z,23.68
2022-07-30T01:49:12.344Z,23.62
2022-07-30T01:50:15.225Z,23.52
2022-07-30T01:51:19.389Z,23.42
2022-07-30T01:52:22.567Z,23.28
2022-07-30T01:53:26.177Z,23.18
2022-07-30T01:54:29.562Z,23.16
2022-07-30T01:55:41.002Z,23.14
2022-07-30T01:56:44.437Z,23.16
2022-07-30T01:57:48.986Z,23.09
2022-07-30T01:58:52.530Z,23.06
2022-07-30T02:00:01.929Z,23.08
2022-07-30T02:01:04.041Z,23.05
2022-07-30T02:02:07.561Z,23.11
2022-07-30T02:03:10.821Z,23.09
2022-07-30T02:04:12.498Z,22.96
2022-07-30T02:05:14.687Z,22.91
2022-07-30T02:06:26.589Z,22.86
2022-07-30T02:07:36.866Z,22.93
2022-07-30T02:08:41.881Z,23.02
2022-07-30T02:10:05.464Z,23.08
2022-07-30T02:11:36.658Z,23.14
2022-07-30T02:12:47.313Z,23.20
2022-07-30T02:13:53.080Z,23.24
2022-07-30T02:15:11.761Z,23.25
2022-07-30T02:16:27.281Z,23.22
2022-07-30T02:18:01.077Z,22.97
2022-07-30T02:19:06.783Z,22.86
2022-07-30T02:20:11.333Z,22.93
2022-07-30T02:21:19.364Z,22.86
2022-07-30T02:22:23.412Z,22.72
2022-07-30T02:23:28.255Z,22.61
2022-07-30T02:24:32.301Z,22.59
2022-07-30T02:25:35.969Z,22.64
2022-07-30T02:26:38.873Z,22.69
2022-07-30T02:27:45.128Z,22.60
2022-07-30T02:28:51.368Z,22.58
2022-07-30T02:29:55.773Z,22.67
2022-07-30T02:31:00.109Z,22.77
2022-07-30T02:32:09.427Z,22.83
2022-07-30T02:33:14.116Z,22.79
2022-07-30T02:34:17.128Z,22.75
2022-07-30T02:35:21.241Z,22.68
2022-07-30T02:36:24.218Z,22.53
2022-07-30T02:37:42.805Z,22.35
2022-07-30T02:38:46.942Z,22.13
2022-07-30T02:39:51.050Z,21.99
2022-07-30T02:40:54.672Z,21.98
2022-07-30T02:41:58.019Z,21.99
2022-07-30T02:43:00.932Z,21.94
2022-07-30T02:44:04.455Z,21.87
2022-07-30T02:45:07.300Z,21.81
2022-07-30T02:46:12.061Z,21.83
2022-07-30T02:47:16.618Z,21.85
2022-07-30T02:48:34.185Z,21.86
2022-07-30T02:49:37.068Z,21.98
2022-07-30T02:50:40.216Z,22.13
2022-07-30T02:51:42.985Z,22.20
2022-07-30T02:52:45.344Z,22.31
2022-07-30T02:53:51.831Z,22.40
2022-07-30T02:54:56.328Z,22.47
2022-07-30T02:56:01.240Z,22.52
2022-07-30T02:57:04.397Z,22.59
2022-07-30T02:58:07.636Z,22.64
2022-07-30T02:59:11.156Z,22.70
2022-07-30T03:00:13.520Z,22.77
2022-07-30T03:01:18.320Z,22.82
2022-07-30T03:02:25.900Z,22.84
2022-07-30T03:03:32.789Z,22.86
2022-07-30T03:04:36.479Z,22.84
2022-07-30T03:05:41.501Z,22.83
2022-07-30T03:06:44.022Z,22.84
2022-07-30T03:07:46.588Z,22.85
2022-07-30T03:08:48.521Z,22.78
2022-07-30T03:09:53.423Z,22.72
2022-07-30T03:10:56.494Z,22.73
2022-07-30T03:11:59.048Z,22.75
2022-07-30T03:13:02.367Z,22.79
2022-07-30T03:14:04.275Z,22.81
2022-07-30T03:15:06.680Z,22.86
2022-07-30T03:16:10.809Z,22.86
2022-07-30T03:17:16.024Z,22.83
2022-07-30T03:18:19.184Z,22.86
2022-07-30T03:19:24.024Z,22.86
2022-07-30T03:20:29.635Z,22.88
2022-07-30T03:21:34.813Z,22.90
2022-07-30T03:22:41.787Z,22.86
2022-07-30T03:23:45.150Z,22.88
2022-07-30T03:24:49.301Z,22.89
2022-07-30T03:26:02.183Z,22.89
2022-07-30T03:27:05.510Z,22.88
2022-07-30T03:28:08.392Z,22.90
2022-07-30T03:29:11.821Z,22.89
2022-07-30T03:30:13.858Z,22.78
2022-07-30T03:31:16.981Z,22.52
2022-07-30T03:32:20.199Z,22.47
2022-07-30T03:33:38.092Z,22.18
2022-07-30T03:34:42.381Z,21.94
2022-07-30T03:35:47.198Z,21.78
2022-07-30T03:36:49.964Z,21.73
2022-07-30T03:37:51.924Z,21.74
2022-07-30T03:38:54.564Z,21.58
2022-07-30T03:39:58.185Z,21.53
2022-07-30T03:41:00.676Z,21.44
2022-07-30T03:42:03.576Z,21.48
2022-07-30T03:43:05.233Z,21.44
2022-07-30T03:44:21.359Z,21.45
2022-07-30T03:45:23.447Z,21.52
2022-07-30T03:46:26.576Z,21.65
2022-07-30T03:47:28.522Z,21.79
2022-07-30T03:48:33.568Z,21.90
2022-07-30T03:49:35.255Z,21.98
2022-07-30T03:50:37.928Z,22.07
2022-07-30T03:51:39.895Z,22.19
2022-07-30T03:52:42.052Z,22.28
2022-07-30T03:53:45.218Z,22.38
2022-07-30T03:54:48.606Z,22.43
2022-07-30T03:55:52.021Z,22.44
2022-07-30T03:56:53.887Z,22.44
2022-07-30T03:57:55.735Z,22.43
2022-07-30T03:58:57.438Z,22.35
2022-07-30T03:59:59.177Z,22.37
2022-07-30T04:01:00.906Z,22.40
2022-07-30T04:02:06.902Z,22.44
2022-07-30T04:03:10.564Z,22.37
2022-07-30T04:04:12.252Z,22.38
2022-07-30T04:05:14.952Z,22.45
2022-07-30T04:06:16.577Z,22.45
2022-07-30T04:07:18.502Z,22.45
2022-07-30T04:08:20.361Z,22.48
2022-07-30T04:09:22.926Z,22.54
2022-07-30T04:10:24.530Z,22.66
2022-07-30T04:11:41.318Z,22.77
2022-07-30T04:12:43.522Z,22.82
2022-07-30T04:13:45.199Z,22.87
2022-07-30T04:14:47.896Z,22.96
2022-07-30T04:16:34.324Z,23.04
2022-07-30T04:17:22.174Z,23.13
2022-07-30T04:18:26.912Z,23.19
2022-07-30T04:19:36.837Z,23.25
2022-07-30T04:20:43.557Z,23.37
2022-07-30T04:21:48.271Z,23.47
2022-07-30T04:22:51.083Z,23.57
2022-07-30T04:24:04.082Z,23.66
2022-07-30T04:25:08.828Z,23.58
2022-07-30T04:26:10.799Z,23.59
2022-07-30T04:27:12.860Z,23.63
2022-07-30T04:28:14.852Z,23.72
2022-07-30T04:29:21.417Z,23.83
2022-07-30T04:30:27.666Z,23.99
2022-07-30T04:31:40.724Z,24.16
2022-07-30T04:32:43.255Z,24.31
2022-07-30T04:33:47.968Z,24.33
2022-07-30T04:34:51.844Z,24.39
2022-07-30T04:35:53.974Z,24.47
2022-07-30T04:36:55.597Z,24.36
2022-07-30T04:37:57.643Z,24.36
2022-07-30T04:39:00.508Z,24.48
2022-07-30T04:40:02.155Z,24.62
2022-07-30T04:41:04.016Z,24.70
2022-07-30T04:42:05.636Z,24.58
2022-07-30T04:43:08.196Z,24.52
2022-07-30T04:44:09.799Z,24.45
2022-07-30T04:45:11.779Z,24.50
2022-07-30T04:46:15.491Z,24.67
2022-07-30T04:47:21.707Z,24.74
2022-07-30T04:48:23.485Z,24.67
2022-07-30T04:49:26.217Z,24.69
2022-07-30T04:50:29.165Z,24.72
2022-07-30T04:51:34.515Z,24.73
2022-07-30T04:52:36.629Z,24.71
2022-07-30T04:53:38.481Z,24.77
2022-07-30T04:54:46.216Z,24.92
2022-07-30T04:55:49.389Z,24.98
2022-07-30T04:57:00.886Z,25.02
2022-07-30T04:58:04.105Z,25.10
2022-07-30T04:59:06.909Z,25.19
2022-07-30T05:00:09.184Z,25.40
2022-07-30T05:01:12.563Z,25.56
2022-07-30T05:02:16.511Z,25.46
2022-07-30T05:03:19.191Z,25.45
2022-07-30T05:04:23.595Z,25.37
2022-07-30T05:05:26.963Z,25.42
2022-07-30T05:06:30.456Z,25.52
2022-07-30T05:07:32.964Z,25.66
2022-07-30T05:08:35.143Z,25.83
2022-07-30T05:09:37.146Z,25.89
2022-07-30T05:10:38.881Z,26.01
2022-07-30T05:11:40.589Z,25.94
2022-07-30T05:12:42.206Z,25.93
2022-07-30T05:13:46.130Z,26.10
2022-07-30T05:14:48.685Z,26.28
2022-07-30T05:15:50.416Z,26.53
2022-07-30T05:16:53.359Z,26.64
2022-07-30T05:17:54.963Z,26.63
2022-07-30T05:18:56.592Z,26.54
2022-07-30T05:19:58.853Z,26.67
2022-07-30T05:21:01.505Z,26.88
2022-07-30T05:22:06.681Z,26.98
2022-07-30T05:23:08.775Z,26.96
2022-07-30T05:24:10.521Z,27.00
2022-07-30T05:25:16.080Z,27.05
2022-07-30T05:26:21.905Z,27.29
2022-07-30T05:27:29.355Z,27.49
2022-07-30T05:28:31.166Z,27.64
2022-07-30T05:29:32.897Z,27.59
2022-07-30T05:30:34.535Z,27.55
2022-07-30T05:31:38.094Z,27.64
2022-07-30T05:32:39.876Z,27.81
2022-07-30T05:33:42.851Z,27.99
2022-07-30T05:34:45.114Z,28.17
2022-07-30T05:35:51.829Z,28.36
2022-07-30T05:36:53.595Z,28.40
2022-07-30T05:37:55.149Z,28.54
2022-07-30T05:38:56.948Z,28.62
2022-07-30T05:40:02.852Z,28.66
2022-07-30T05:41:05.192Z,28.80
2022-07-30T05:42:26.761Z,28.97
2022-07-30T05:43:28.356Z,29.01
2022-07-30T05:44:30.107Z,29.00
2022-07-30T05:45:31.860Z,28.89
2022-07-30T05:46:33.853Z,28.90
2022-07-30T05:47:36.030Z,28.92
2022-07-30T05:48:37.709Z,29.02
2022-07-30T05:49:39.356Z,29.15
2022-07-30T05:50:41.056Z,29.16
2022-07-30T05:51:42.889Z,29.20
2022-07-30T05:52:46.349Z,29.27
2022-07-30T05:53:48.110Z,29.31
2022-07-30T05:54:49.745Z,29.36
2022-07-30T05:55:51.359Z,29.33
2022-07-30T05:56:53.066Z,29.27
2022-07-30T05:57:54.746Z,29.26
2022-07-30T05:58:56.396Z,29.31
2022-07-30T05:59:58.027Z,29.38
2022-07-30T06:00:59.573Z,29.40
2022-07-30T06:02:03.246Z,29.40
2022-07-30T06:03:05.079Z,29.37
2022-07-30T06:04:06.746Z,29.43
2022-07-30T06:05:08.839Z,29.59
2022-07-30T06:06:10.573Z,29.57
2022-07-30T06:07:12.156Z,29.53
2022-07-30T06:08:13.782Z,29.59
2022-07-30T06:09:15.572Z,29.51
2022-07-30T06:10:17.501Z,29.54
2022-07-30T06:11:19.464Z,29.59
2022-07-30T06:12:21.081Z,29.46
2022-07-30T06:13:22.709Z,29.29
2022-07-30T06:14:24.564Z,29.15
2022-07-30T06:15:26.478Z,29.11
2022-07-30T06:16:28.272Z,29.09
2022-07-30T06:17:30.159Z,28.99
2022-07-30T06:18:32.130Z,29.09
2022-07-30T06:19:33.755Z,29.13
2022-07-30T06:20:35.392Z,29.13
2022-07-30T06:22:06.092Z,29.01
2022-07-30T06:22:58.700Z,28.92
2022-07-30T06:24:00.317Z,28.94
2022-07-30T06:25:01.995Z,28.88
2022-07-30T06:26:04.938Z,28.96
2022-07-30T06:27:06.599Z,29.01
2022-07-30T06:28:34.749Z,28.98
2022-07-30T06:29:29.972Z,28.97
2022-07-30T06:30:31.689Z,29.06
2022-07-30T06:31:34.318Z,28.95
2022-07-30T06:32:36.618Z,28.84
2022-07-30T06:33:38.385Z,28.88
2022-07-30T06:34:40.030Z,28.87
2022-07-30T06:35:42.063Z,28.94
2022-07-30T06:36:43.658Z,29.11
2022-07-30T06:38:05.771Z,29.12
2022-07-30T06:39:06.884Z,29.12
2022-07-30T06:40:09.270Z,29.13
2022-07-30T06:41:11.041Z,29.23
2022-07-30T06:42:12.674Z,29.24
2022-07-30T06:43:14.352Z,29.25
2022-07-30T06:44:15.954Z,29.32
2022-07-30T06:45:18.007Z,29.47
2022-07-30T06:46:19.689Z,29.56
2022-07-30T06:47:26.227Z,29.62
2022-07-30T06:48:29.903Z,29.66
2022-07-30T06:49:32.881Z,29.77
2022-07-30T06:50:36.837Z,29.89
2022-07-30T06:51:38.455Z,30.04
2022-07-30T06:52:40.073Z,30.16
2022-07-30T06:53:42.713Z,30.28
2022-07-30T06:54:44.562Z,30.42
2022-07-30T06:55:46.225Z,30.57
2022-07-30T06:56:47.906Z,30.63
2022-07-30T06:57:49.543Z,30.68
2022-07-30T06:58:51.228Z,30.59
2022-07-30T06:59:56.209Z,30.38
2022-07-30T07:00:59.194Z,30.51
2022-07-30T07:02:00.879Z,30.66
2022-07-30T07:03:02.460Z,30.70
2022-07-30T07:04:04.364Z,30.83
2022-07-30T07:05:07.464Z,31.02
2022-07-30T07:06:09.296Z,31.11
2022-07-30T07:07:13.895Z,31.17
2022-07-30T07:08:38.879Z,31.22
2022-07-30T07:09:44.590Z,31.33
2022-07-30T07:10:46.767Z,31.38
2022-07-30T07:11:48.365Z,31.24
2022-07-30T07:12:49.986Z,31.25
2022-07-30T07:13:51.603Z,31.36
2022-07-30T07:14:53.241Z,31.37
2022-07-30T07:15:55.499Z,31.48
2022-07-30T07:16:57.107Z,31.52
2022-07-30T07:17:58.714Z,31.53
2022-07-30T07:19:04.101Z,31.50
2022-07-30T07:20:06.359Z,31.52
2022-07-30T07:21:08.365Z,31.64
2022-07-30T07:22:09.944Z,31.56
2022-07-30T07:23:12.234Z,31.58
2022-07-30T07:24:14.060Z,31.60
2022-07-30T07:25:16.035Z,31.65
2022-07-30T07:26:17.769Z,31.83
2022-07-30T07:27:19.407Z,32.05
2022-07-30T07:28:21.135Z,32.23
2022-07-30T07:29:22.802Z,32.40
2022-07-30T07:30:24.598Z,32.52
2022-07-30T07:32:05.201Z,32.68
2022-07-30T07:32:47.982Z,32.74
2022-07-30T07:33:49.614Z,32.36
2022-07-30T07:34:51.219Z,32.44
2022-07-30T07:35:54.816Z,32.51
2022-07-30T07:36:56.562Z,32.65
2022-07-30T07:37:58.183Z,32.74
2022-07-30T07:38:59.816Z,32.77
2022-07-30T07:40:01.571Z,32.78
2022-07-30T07:41:03.238Z,32.88
2022-07-30T07:42:04.905Z,32.92
2022-07-30T07:43:06.533Z,32.85
2022-07-30T07:44:08.625Z,32.91
2022-07-30T07:45:10.721Z,33.03
2022-07-30T07:46:16.460Z,33.05
2022-07-30T07:47:19.079Z,33.10
2022-07-30T07:48:20.853Z,33.06
2022-07-30T07:49:22.503Z,33.11
2022-07-30T07:50:24.317Z,33.17
2022-07-30T07:51:46.924Z,33.22
2022-07-30T07:52:47.717Z,32.92
2022-07-30T07:54:18.728Z,32.54
2022-07-30T07:55:11.516Z,32.11
2022-07-30T07:56:15.813Z,32.14
2022-07-30T07:57:17.448Z,32.00
2022-07-30T07:58:25.435Z,31.88
2022-07-30T07:59:39.633Z,31.94
2022-07-30T08:00:42.557Z,32.25
2022-07-30T08:01:46.623Z,31.98
2022-07-30T08:02:49.568Z,31.89
2022-07-30T08:03:51.431Z,31.94
2022-07-30T08:04:53.988Z,31.99
2022-07-30T08:06:04.692Z,31.64
2022-07-30T08:07:08.132Z,31.22
2022-07-30T08:08:09.770Z,31.24
2022-07-30T08:09:17.432Z,31.23
2022-07-30T08:10:19.106Z,31.26
2022-07-30T08:11:20.717Z,31.25
2022-07-30T08:12:22.437Z,31.51
2022-07-30T08:13:51.585Z,31.88
2022-07-30T08:14:48.214Z,32.28
2022-07-30T08:15:50.246Z,32.54
2022-07-30T08:16:51.866Z,32.56
2022-07-30T08:17:53.692Z,32.39
2022-07-30T08:18:55.354Z,32.44
2022-07-30T08:20:00.765Z,32.15
2022-07-30T08:21:02.644Z,32.14
2022-07-30T08:22:04.219Z,32.27
2022-07-30T08:23:07.105Z,32.40
2022-07-30T08:24:08.903Z,32.59
2022-07-30T08:25:10.636Z,32.43
2022-07-30T08:26:12.320Z,32.03
2022-07-30T08:27:13.918Z,31.89
2022-07-30T08:28:35.364Z,31.99
2022-07-30T08:29:37.426Z,32.10
2022-07-30T08:30:39.069Z,32.38
2022-07-30T08:31:40.663Z,32.72
2022-07-30T08:32:42.275Z,32.98
2022-07-30T08:33:43.851Z,33.18
2022-07-30T08:34:45.467Z,33.31
2022-07-30T08:35:54.851Z,33.50
2022-07-30T08:37:00.847Z,33.58
2022-07-30T08:38:02.429Z,33.65
2022-07-30T08:39:04.058Z,33.67
2022-07-30T08:40:06.215Z,33.80
2022-07-30T08:41:08.263Z,33.72
2022-07-30T08:42:10.193Z,33.67
2022-07-30T08:43:11.819Z,33.62
2022-07-30T08:44:13.469Z,33.34
2022-07-30T08:45:17.552Z,33.31
2022-07-30T08:46:23.562Z,33.47
2022-07-30T08:47:32.464Z,33.61
2022-07-30T08:48:35.248Z,33.78
2022-07-30T08:49:37.984Z,33.81
2022-07-30T08:50:40.053Z,33.65
2022-07-30T08:51:42.445Z,33.73
2022-07-30T08:52:44.698Z,33.88
2022-07-30T08:53:47.190Z,33.99
2022-07-30T08:54:48.877Z,34.15
2022-07-30T08:55:50.679Z,34.20
2022-07-30T08:56:52.608Z,34.28
2022-07-30T08:57:54.812Z,34.34
2022-07-30T08:58:57.355Z,34.39
2022-07-30T09:00:01.327Z,34.50
2022-07-30T09:01:06.025Z,34.65
2022-07-30T09:02:12.462Z,34.65
2022-07-30T09:03:14.599Z,34.66
2022-07-30T09:04:16.161Z,34.60
2022-07-30T09:05:17.840Z,34.63
2022-07-30T09:06:19.812Z,34.17
2022-07-30T09:07:21.536Z,33.72
2022-07-30T09:08:23.381Z,33.46
2022-07-30T09:09:25.062Z,33.27
2022-07-30T09:10:27.082Z,33.34
2022-07-30T09:11:28.741Z,33.51
2022-07-30T09:12:40.882Z,33.54
2022-07-30T09:13:44.469Z,33.33
2022-07-30T09:15:20.223Z,33.09
2022-07-30T09:16:24.580Z,32.95
2022-07-30T09:17:28.872Z,32.97
2022-07-30T09:18:37.912Z,33.12
2022-07-30T09:19:39.544Z,33.03
2022-07-30T09:20:41.238Z,32.89
2022-07-30T09:21:43.400Z,32.77
2022-07-30T09:22:51.780Z,32.79
2022-07-30T09:24:03.275Z,33.06
2022-07-30T09:25:05.024Z,33.34
2022-07-30T09:26:06.811Z,33.52
2022-07-30T09:27:10.103Z,33.64
2022-07-30T09:28:16.045Z,33.36
2022-07-30T09:29:20.711Z,32.90
2022-07-30T09:30:22.512Z,32.76
2022-07-30T09:31:24.289Z,32.63
2022-07-30T09:32:25.883Z,32.65
2022-07-30T09:33:40.237Z,32.73
2022-07-30T09:34:42.068Z,32.74
2022-07-30T09:35:43.880Z,32.82
2022-07-30T09:36:45.682Z,33.01
2022-07-30T09:37:47.994Z,33.28
2022-07-30T09:38:52.632Z,33.40
2022-07-30T09:39:58.867Z,33.36
2022-07-30T09:41:04.942Z,33.44
2022-07-30T09:42:22.845Z,33.35
2022-07-30T09:43:27.681Z,33.16
2022-07-30T09:44:30.395Z,33.22
2022-07-30T09:45:34.822Z,33.32
2022-07-30T09:46:47.101Z,33.06
2022-07-30T09:47:49.411Z,32.97
2022-07-30T09:48:51.075Z,32.92
2022-07-30T09:51:56.278Z,33.23
2022-07-30T09:53:11.839Z,33.30
2022-07-30T09:54:13.946Z,33.21
2022-07-30T09:55:30.705Z,33.24
2022-07-30T09:56:32.334Z,33.26
2022-07-30T09:57:34.119Z,33.44
2022-07-30T09:58:40.676Z,33.56
2022-07-30T09:59:47.945Z,33.52
2022-07-30T10:00:58.117Z,33.47
2022-07-30T10:02:03.837Z,33.61
2022-07-30T10:03:21.624Z,33.73
2022-07-30T10:04:36.558Z,33.81
2022-07-30T10:05:53.541Z,33.78
2022-07-30T10:06:56.545Z,33.84
2022-07-30T10:08:02.602Z,33.96
2022-07-30T10:09:14.180Z,34.08
2022-07-30T10:10:20.842Z,34.25
2022-07-30T10:11:23.953Z,34.18
2022-07-30T10:12:26.636Z,34.27
2022-07-30T10:13:29.563Z,34.45
2022-07-30T10:14:42.250Z,34.64
2022-07-30T10:15:45.141Z,34.81
2022-07-30T10:16:47.496Z,34.90
2022-07-30T10:17:49.846Z,34.93
2022-07-30T10:18:52.209Z,34.96
2022-07-30T10:19:54.749Z,34.98
2022-07-30T10:20:56.619Z,34.96
2022-07-30T10:22:01.470Z,34.96
2022-07-30T10:23:09.245Z,34.99
2022-07-30T10:24:12.873Z,35.07
2022-07-30T10:25:23.230Z,35.06
2022-07-30T10:26:34.806Z,35.12
2022-07-30T10:27:37.221Z,35.22
2022-07-30T10:28:42.871Z,35.30
2022-07-30T10:29:45.272Z,35.31
2022-07-30T10:30:50.144Z,35.25
2022-07-30T10:31:54.426Z,35.30
2022-07-30T10:32:58.659Z,35.32
2022-07-30T10:34:02.438Z,35.34
2022-07-30T10:35:05.392Z,35.15
2022-07-30T10:36:10.321Z,34.81
2022-07-30T10:37:13.490Z,34.78
2022-07-30T10:38:17.348Z,34.96
2022-07-30T10:39:24.731Z,35.04
2022-07-30T10:40:35.853Z,35.13
2022-07-30T10:42:05.616Z,35.27
2022-07-30T10:43:17.240Z,35.34
2022-07-30T10:44:28.188Z,35.34
2022-07-30T10:45:46.324Z,35.32
2022-07-30T10:47:07.527Z,35.45
2022-07-30T10:48:10.947Z,35.56
2022-07-30T10:49:18.500Z,35.63
2022-07-30T10:50:26.746Z,35.71
2022-07-30T10:51:48.923Z,35.81
2022-07-30T10:52:57.956Z,35.82
2022-07-30T10:53:59.653Z,35.86
2022-07-30T10:55:01.267Z,35.86
2022-07-30T10:56:19.203Z,35.91
2022-07-30T10:57:32.191Z,35.89
2022-07-30T10:58:57.161Z,35.81
2022-07-30T11:00:04.022Z,35.88
2022-07-30T11:01:06.093Z,35.97
2022-07-30T11:02:20.535Z,35.87
2022-07-30T11:03:40.750Z,35.98
2022-07-30T11:04:46.847Z,36.04
2022-07-30T11:05:50.449Z,36.01
2022-07-30T11:07:17.268Z,35.94
2022-07-30T11:08:42.607Z,35.85
2022-07-30T11:09:44.772Z,35.74
2022-07-30T11:12:01.905Z,35.23
2022-07-30T11:12:53.011Z,35.11
2022-07-30T11:13:57.435Z,35.20
2022-07-30T11:15:06.489Z,35.27
2022-07-30T11:16:21.933Z,35.41
2022-07-30T11:17:24.129Z,35.48
2022-07-30T11:18:27.556Z,35.51
2022-07-30T11:19:53.391Z,35.50
2022-07-30T11:21:16.026Z,35.52
2022-07-30T11:22:31.631Z,35.52
2022-07-30T11:23:39.523Z,35.59
2022-07-30T11:24:47.104Z,35.67
2022-07-30T11:25:54.794Z,35.68
2022-07-30T11:26:56.758Z,35.65
2022-07-30T11:28:00.767Z,35.68
2022-07-30T11:29:04.230Z,35.67
2022-07-30T11:30:27.018Z,35.60
2022-07-30T11:31:55.031Z,35.71
2022-07-30T11:33:18.653Z,35.79
2022-07-30T11:34:20.596Z,35.64
2022-07-30T11:35:34.613Z,35.63
2022-07-30T11:36:37.766Z,35.71
2022-07-30T11:38:07.466Z,35.53
2022-07-30T11:39:10.088Z,35.36
2022-07-30T11:40:12.971Z,35.33
2022-07-30T11:41:14.589Z,35.33
2022-07-30T11:42:36.739Z,35.35
2022-07-30T11:43:41.566Z,35.36
2022-07-30T11:44:46.900Z,35.35
2022-07-30T11:45:53.499Z,35.31
2022-07-30T11:46:55.862Z,35.22
2022-07-30T11:48:00.254Z,35.06
2022-07-30T11:49:08.278Z,35.02
2022-07-30T11:50:31.343Z,35.09
2022-07-30T11:51:44.046Z,35.01
2022-07-30T11:52:52.156Z,34.90
2022-07-30T11:54:05.316Z,34.85
2022-07-30T11:55:07.385Z,34.73
2022-07-30T11:56:10.481Z,34.69
2022-07-30T11:57:16.348Z,34.58
2022-07-30T11:58:26.973Z,34.55
2022-07-30T11:59:28.561Z,34.62
2022-07-30T12:00:47.963Z,34.58
2022-07-30T12:01:56.923Z,34.62
2022-07-30T12:03:02.411Z,34.62
2022-07-30T12:04:06.972Z,34.65
2022-07-30T12:05:08.735Z,34.56
2022-07-30T12:06:21.294Z,34.54
2022-07-30T12:07:25.854Z,34.53
2022-07-30T12:08:35.826Z,34.57
2022-07-30T12:09:38.012Z,34.59
2022-07-30T12:10:57.458Z,34.75
2022-07-30T12:12:00.987Z,34.76
2022-07-30T12:13:14.083Z,34.87
2022-07-30T12:14:15.751Z,34.99
2022-07-30T12:15:32.487Z,35.13
2022-07-30T12:16:34.664Z,35.21
2022-07-30T12:17:44.029Z,35.23
2022-07-30T12:18:47.157Z,35.12
2022-07-30T12:19:49.169Z,35.08
2022-07-30T12:20:59.610Z,35.03
2022-07-30T12:22:01.494Z,35.02
2022-07-30T12:23:09.681Z,34.93
2022-07-30T12:24:11.692Z,35.02
2022-07-30T12:25:14.584Z,35.02
2022-07-30T12:26:27.732Z,34.97
2022-07-30T12:27:29.358Z,34.85
2022-07-30T12:28:34.115Z,34.81
2022-07-30T12:29:36.428Z,34.90
2022-07-30T12:30:39.687Z,35.04
2022-07-30T12:31:41.914Z,35.08
2022-07-30T12:32:48.008Z,35.11
2022-07-30T12:33:49.724Z,35.14
2022-07-30T12:34:58.087Z,35.18
2022-07-30T12:36:00.996Z,35.22
2022-07-30T12:37:10.150Z,35.26
2022-07-30T12:38:12.313Z,35.32
2022-07-30T12:39:20.282Z,35.26
2022-07-30T12:40:21.919Z,35.23
2022-07-30T12:41:40.054Z,35.20
2022-07-30T12:42:54.146Z,35.17
2022-07-30T12:43:56.343Z,35.17
2022-07-30T12:44:58.355Z,35.17
2022-07-30T12:46:00.532Z,35.06
2022-07-30T12:47:04.515Z,34.97
2022-07-30T12:48:11.324Z,34.97
2022-07-30T12:49:22.738Z,34.84
2022-07-30T12:50:25.788Z,34.85
2022-07-30T12:51:32.701Z,34.92
2022-07-30T12:52:38.323Z,34.83
2022-07-30T12:53:39.986Z,34.71
2022-07-30T12:54:42.214Z,34.63
2022-07-30T12:55:44.589Z,34.68
2022-07-30T12:57:04.546Z,34.53
2022-07-30T12:58:08.600Z,34.39
2022-07-30T12:59:21.771Z,34.44
2022-07-30T13:00:25.637Z,34.44
2022-07-30T13:01:44.437Z,34.44
2022-07-30T13:02:46.120Z,34.46
2022-07-30T13:03:47.950Z,34.53
2022-07-30T13:05:10.185Z,34.56
2022-07-30T13:06:14.978Z,34.56
2022-07-30T13:07:16.810Z,34.62
2022-07-30T13:08:18.661Z,34.67
2022-07-30T13:09:21.156Z,34.61
2022-07-30T13:10:25.145Z,34.50
2022-07-30T13:11:48.968Z,34.58
2022-07-30T13:12:51.303Z,34.60
2022-07-30T13:13:53.518Z,34.76
2022-07-30T13:14:55.516Z,34.84
2022-07-30T13:16:01.378Z,34.87
2022-07-30T13:17:04.250Z,34.92
2022-07-30T13:18:06.310Z,34.96
2022-07-30T13:19:11.683Z,35.03
2022-07-30T13:20:17.524Z,34.80
2022-07-30T13:21:19.600Z,34.74
2022-07-30T13:22:21.717Z,34.66
2022-07-30T13:23:24.536Z,34.81
2022-07-30T13:24:26.113Z,34.92
2022-07-30T13:25:28.190Z,34.93
2022-07-30T13:26:42.385Z,35.14
2022-07-30T13:27:44.076Z,35.21
2022-07-30T13:28:48.621Z,35.30
2022-07-30T13:29:50.189Z,35.37
2022-07-30T13:30:52.434Z,35.30
2022-07-30T13:31:54.078Z,35.16
2022-07-30T13:32:55.712Z,35.15
2022-07-30T13:33:57.372Z,35.19
2022-07-30T13:35:01.609Z,35.08
2022-07-30T13:36:04.119Z,34.85
2022-07-30T13:37:05.917Z,34.80
2022-07-30T13:38:08.040Z,34.85
2022-07-30T13:39:11.288Z,34.97
2022-07-30T13:40:12.999Z,35.07
2022-07-30T13:41:16.572Z,35.19
2022-07-30T13:42:18.185Z,35.30
2022-07-30T13:43:20.582Z,35.33
2022-07-30T13:44:22.176Z,35.37
2022-07-30T13:45:23.845Z,35.42
2022-07-30T13:46:25.464Z,35.43
2022-07-30T13:47:27.069Z,35.42
2022-07-30T13:48:28.925Z,35.49
2022-07-30T13:49:30.570Z,35.55
2022-07-30T13:50:32.230Z,35.60
2022-07-30T13:51:34.319Z,35.65
2022-07-30T13:52:36.016Z,35.69
2022-07-30T13:53:37.653Z,35.74
2022-07-30T13:54:39.260Z,35.57
2022-07-30T13:55:42.833Z,35.42
2022-07-30T13:56:44.397Z,35.38
2022-07-30T13:57:46.699Z,35.46
2022-07-30T13:58:48.461Z,35.41
2022-07-30T13:59:50.042Z,35.28